Mission, South Dakota
Current Conditions -  °F | °C
As of 1:22 AM on Thursday 18 Dec 2014 (Local Time) from KVTN Reporting Station
Overcast Overcast  
Wind Chill: 12°   Ceiling: 1000
Heat Index: 24°   Visibility: 10mi
Dew Point: 20°   Wind: 13mph
Humidity: 84%   Direction: 210°SSW
Pressure: 30.07"   Gusts: NA
Location:  43.31°N, 100.66°W
Report Text: KVTN 180822Z AUTO 21011KT 10SM OVC010 M04/M07 A3007 RMK AO2 T10441067
Loading
Personal Weather Stations






























Interactive Weather Map New forecast layout! Learn more

10-Day Weather Forecast

Advertisements
Track Severe Weather on mobile